sensor_id;sensor_type;location;lat;lon;timestamp;temperature;humidity
26107;DHT22;13866;50.748;12.630;2022-08-03T00:01:02;17.50;99.90
26107;DHT22;13866;50.748;12.630;2022-08-03T00:03:27;17.40;99.90
26107;DHT22;13866;50.748;12.630;2022-08-03T00:05:53;17.40;99.90
26107;DHT22;13866;50.748;12.630;2022-08-03T00:08:18;17.40;99.90
26107;DHT22;13866;50.748;12.630;2022-08-03T00:10:44;17.20;99.90
26107;DHT22;13866;50.748;12.630;2022-08-03T00:13:09;17.20;99.90
26107;DHT22;13866;50.748;12.630;2022-08-03T00:15:40;17.20;99.90
26107;DHT22;13866;50.748;12.630;2022-08-03T00:18:07;17.20;99.90
26107;DHT22;13866;50.748;12.630;2022-08-03T00:20:32;17.10;99.90
26107;DHT22;13866;50.748;12.630;2022-08-03T00:22:58;17.10;99.90
26107;DHT22;13866;50.748;12.630;2022-08-03T00:25:23;17.20;99.90
26107;DHT22;13866;50.748;12.630;2022-08-03T00:27:49;17.20;99.90
26107;DHT22;13866;50.748;12.630;2022-08-03T00:30:14;17.00;99.90
26107;DHT22;13866;50.748;12.630;2022-08-03T00:32:40;17.00;99.90
26107;DHT22;13866;50.748;12.630;2022-08-03T00:35:06;16.90;99.90
26107;DHT22;13866;50.748;12.630;2022-08-03T00:37:31;16.90;99.90
26107;DHT22;13866;50.748;12.630;2022-08-03T00:39:57;16.90;99.90
26107;DHT22;13866;50.748;12.630;2022-08-03T00:42:22;16.90;99.90
26107;DHT22;13866;50.748;12.630;2022-08-03T00:44:48;16.90;99.90
26107;DHT22;13866;50.748;12.630;2022-08-03T00:47:13;16.80;99.90
26107;DHT22;13866;50.748;12.630;2022-08-03T00:49:39;16.80;99.90
26107;DHT22;13866;50.748;12.630;2022-08-03T00:52:09;16.60;99.90
26107;DHT22;13866;50.748;12.630;2022-08-03T00:54:37;16.60;99.90
26107;DHT22;13866;50.748;12.630;2022-08-03T00:57:03;16.70;99.90
26107;DHT22;13866;50.748;12.630;2022-08-03T00:59:29;16.70;99.90
26107;DHT22;13866;50.748;12.630;2022-08-03T01:01:55;16.70;99.90
26107;DHT22;13866;50.748;12.630;2022-08-03T01:04:20;16.70;99.90
26107;DHT22;13866;50.748;12.630;2022-08-03T01:07:11;16.70;99.90
26107;DHT22;13866;50.748;12.630;2022-08-03T01:09:37;16.70;99.90
26107;DHT22;13866;50.748;12.630;2022-08-03T01:14:54;16.80;99.90
26107;DHT22;13866;50.748;12.630;2022-08-03T01:17:31;16.80;99.90
26107;DHT22;13866;50.748;12.630;2022-08-03T01:20:06;16.80;99.90
26107;DHT22;13866;50.748;12.630;2022-08-03T01:31:38;16.60;99.90
26107;DHT22;13866;50.748;12.630;2022-08-03T01:34:07;16.50;99.90
26107;DHT22;13866;50.748;12.630;2022-08-03T01:36:39;16.50;99.90
26107;DHT22;13866;50.748;12.630;2022-08-03T01:39:07;16.50;99.90
26107;DHT22;13866;50.748;12.630;2022-08-03T01:41:38;16.50;99.90
26107;DHT22;13866;50.748;12.630;2022-08-03T01:44:07;16.50;99.90
26107;DHT22;13866;50.748;12.630;2022-08-03T01:46:34;16.50;99.90
26107;DHT22;13866;50.748;12.630;2022-08-03T01:49:02;16.50;99.90
26107;DHT22;13866;50.748;12.630;2022-08-03T01:51:31;16.50;99.90
26107;DHT22;13866;50.748;12.630;2022-08-03T01:53:57;16.50;99.90
26107;DHT22;13866;50.748;12.630;2022-08-03T01:56:25;16.50;99.90
26107;DHT22;13866;50.748;12.630;2022-08-03T01:58:53;16.50;99.90
26107;DHT22;13866;50.748;12.630;2022-08-03T02:01:20;16.50;99.90
26107;DHT22;13866;50.748;12.630;2022-08-03T02:03:48;16.50;99.90
26107;DHT22;13866;50.748;12.630;2022-08-03T02:06:14;16.50;99.90
26107;DHT22;13866;50.748;12.630;2022-08-03T02:08:42;16.50;99.90
26107;DHT22;13866;50.748;12.630;2022-08-03T02:11:09;16.50;99.90
26107;DHT22;13866;50.748;12.630;2022-08-03T02:13:35;16.50;99.90
26107;DHT22;13866;50.748;12.630;2022-08-03T02:16:04;16.50;99.90
26107;DHT22;13866;50.748;12.630;2022-08-03T02:18:31;16.50;99.90
26107;DHT22;13866;50.748;12.630;2022-08-03T02:21:00;16.50;99.90
26107;DHT22;13866;50.748;12.630;2022-08-03T02:23:25;16.40;99.90
26107;DHT22;13866;50.748;12.630;2022-08-03T02:25:56;16.50;99.90
26107;DHT22;13866;50.748;12.630;2022-08-03T02:28:28;16.50;99.90
26107;DHT22;13866;50.748;12.630;2022-08-03T02:30:55;16.50;99.90
26107;DHT22;13866;50.748;12.630;2022-08-03T02:33:27;16.50;99.90
26107;DHT22;13866;50.748;12.630;2022-08-03T02:35:56;16.50;99.90
26107;DHT22;13866;50.748;12.630;2022-08-03T02:38:26;16.50;99.90
26107;DHT22;13866;50.748;12.630;2022-08-03T02:40:54;16.50;99.90
26107;DHT22;13866;50.748;12.630;2022-08-03T02:43:22;16.50;99.90
26107;DHT22;13866;50.748;12.630;2022-08-03T02:45:49;16.50;99.90
26107;DHT22;13866;50.748;12.630;2022-08-03T02:48:19;16.60;99.90
26107;DHT22;13866;50.748;12.630;2022-08-03T02:50:47;16.70;99.90
26107;DHT22;13866;50.748;12.630;2022-08-03T02:53:16;16.50;99.90
26107;DHT22;13866;50.748;12.630;2022-08-03T02:55:42;16.50;99.90
26107;DHT22;13866;50.748;12.630;2022-08-03T02:58:10;16.50;99.90
26107;DHT22;13866;50.748;12.630;2022-08-03T03:00:38;16.30;99.90
26107;DHT22;13866;50.748;12.630;2022-08-03T03:03:04;16.30;99.90
26107;DHT22;13866;50.748;12.630;2022-08-03T03:05:30;16.30;99.90
26107;DHT22;13866;50.748;12.630;2022-08-03T03:07:57;16.30;99.90
26107;DHT22;13866;50.748;12.630;2022-08-03T03:10:23;16.30;99.90
26107;DHT22;13866;50.748;12.630;2022-08-03T03:12:51;16.40;99.90
26107;DHT22;13866;50.748;12.630;2022-08-03T03:15:17;16.40;99.90
26107;DHT22;13866;50.748;12.630;2022-08-03T03:17:43;16.40;99.90
26107;DHT22;13866;50.748;12.630;2022-08-03T03:20:09;16.40;99.90
26107;DHT22;13866;50.748;12.630;2022-08-03T03:22:36;16.40;99.90
26107;DHT22;13866;50.748;12.630;2022-08-03T03:25:02;16.30;99.90
26107;DHT22;13866;50.748;12.630;2022-08-03T03:27:30;16.30;99.90
26107;DHT22;13866;50.748;12.630;2022-08-03T03:29:56;16.30;99.90
26107;DHT22;13866;50.748;12.630;2022-08-03T03:32:22;16.20;99.90
26107;DHT22;13866;50.748;12.630;2022-08-03T03:34:48;16.10;99.90
26107;DHT22;13866;50.748;12.630;2022-08-03T03:37:14;16.10;99.90
26107;DHT22;13866;50.748;12.630;2022-08-03T03:39:40;16.00;99.90
26107;DHT22;13866;50.748;12.630;2022-08-03T03:42:05;15.90;99.90
26107;DHT22;13866;50.748;12.630;2022-08-03T03:44:31;15.80;99.90
26107;DHT22;13866;50.748;12.630;2022-08-03T03:46:57;15.80;99.90
26107;DHT22;13866;50.748;12.630;2022-08-03T03:49:22;15.80;99.90
26107;DHT22;13866;50.748;12.630;2022-08-03T03:51:51;15.80;99.90
26107;DHT22;13866;50.748;12.630;2022-08-03T03:54:17;15.60;99.90
26107;DHT22;13866;50.748;12.630;2022-08-03T03:56:43;15.60;99.90
26107;DHT22;13866;50.748;12.630;2022-08-03T03:59:09;15.60;99.90
26107;DHT22;13866;50.748;12.630;2022-08-03T04:01:34;15.60;99.90
26107;DHT22;13866;50.748;12.630;2022-08-03T04:04:00;15.70;99.90
26107;DHT22;13866;50.748;12.630;2022-08-03T04:06:45;15.70;99.90
26107;DHT22;13866;50.748;12.630;2022-08-03T04:09:30;15.60;99.90
26107;DHT22;13866;50.748;12.630;2022-08-03T04:12:16;15.70;99.90
26107;DHT22;13866;50.748;12.630;2022-08-03T04:14:43;15.70;99.90
26107;DHT22;13866;50.748;12.630;2022-08-03T04:17:11;15.70;99.90
26107;DHT22;13866;50.748;12.630;2022-08-03T04:19:42;15.80;99.90
26107;DHT22;13866;50.748;12.630;2022-08-03T04:22:11;16.10;99.90
26107;DHT22;13866;50.748;12.630;2022-08-03T04:24:51;16.20;99.90
26107;DHT22;13866;50.748;12.630;2022-08-03T04:27:21;16.00;99.90
26107;DHT22;13866;50.748;12.630;2022-08-03T04:29:51;16.10;99.90
26107;DHT22;13866;50.748;12.630;2022-08-03T04:32:18;16.10;99.90
26107;DHT22;13866;50.748;12.630;2022-08-03T04:34:45;16.20;99.90
26107;DHT22;13866;50.748;12.630;2022-08-03T04:37:15;16.10;99.90
26107;DHT22;13866;50.748;12.630;2022-08-03T04:39:43;16.10;99.90
26107;DHT22;13866;50.748;12.630;2022-08-03T04:42:13;16.10;99.90
26107;DHT22;13866;50.748;12.630;2022-08-03T04:44:41;16.20;99.90
26107;DHT22;13866;50.748;12.630;2022-08-03T04:47:08;16.30;99.90
26107;DHT22;13866;50.748;12.630;2022-08-03T04:49:35;16.40;99.90
26107;DHT22;13866;50.748;12.630;2022-08-03T04:52:02;16.40;99.90
26107;DHT22;13866;50.748;12.630;2022-08-03T04:54:28;16.50;99.90
26107;DHT22;13866;50.748;12.630;2022-08-03T04:56:53;16.50;99.90
26107;DHT22;13866;50.748;12.630;2022-08-03T04:59:19;16.60;99.90
26107;DHT22;13866;50.748;12.630;2022-08-03T05:01:44;16.70;99.90
26107;DHT22;13866;50.748;12.630;2022-08-03T05:04:09;16.80;99.90
26107;DHT22;13866;50.748;12.630;2022-08-03T05:06:35;16.90;99.90
26107;DHT22;13866;50.748;12.630;2022-08-03T05:09:01;16.90;99.90
26107;DHT22;13866;50.748;12.630;2022-08-03T05:11:27;17.00;99.90
26107;DHT22;13866;50.748;12.630;2022-08-03T05:13:54;17.10;99.90
26107;DHT22;13866;50.748;12.630;2022-08-03T05:16:19;17.20;99.90
26107;DHT22;13866;50.748;12.630;2022-08-03T05:18:45;17.30;99.90
26107;DHT22;13866;50.748;12.630;2022-08-03T05:21:10;17.40;99.90
26107;DHT22;13866;50.748;12.630;2022-08-03T05:23:39;17.50;99.90
26107;DHT22;13866;50.748;12.630;2022-08-03T05:26:04;17.70;99.90
26107;DHT22;13866;50.748;12.630;2022-08-03T05:28:30;17.80;99.90
26107;DHT22;13866;50.748;12.630;2022-08-03T05:30:56;18.10;99.90
26107;DHT22;13866;50.748;12.630;2022-08-03T05:33:21;18.50;99.90
26107;DHT22;13866;50.748;12.630;2022-08-03T05:35:47;18.90;99.90
26107;DHT22;13866;50.748;12.630;2022-08-03T05:38:12;19.30;99.90
26107;DHT22;13866;50.748;12.630;2022-08-03T05:40:38;19.70;99.90
26107;DHT22;13866;50.748;12.630;2022-08-03T05:43:03;20.00;99.90
26107;DHT22;13866;50.748;12.630;2022-08-03T05:45:29;20.30;99.90
26107;DHT22;13866;50.748;12.630;2022-08-03T05:47:54;20.60;99.90
26107;DHT22;13866;50.748;12.630;2022-08-03T05:50:20;20.90;99.90
26107;DHT22;13866;50.748;12.630;2022-08-03T05:52:46;21.10;99.90
26107;DHT22;13866;50.748;12.630;2022-08-03T05:55:11;21.30;99.90
26107;DHT22;13866;50.748;12.630;2022-08-03T05:57:38;21.60;99.90
26107;DHT22;13866;50.748;12.630;2022-08-03T06:00:08;21.80;99.90
26107;DHT22;13866;50.748;12.630;2022-08-03T06:02:34;22.00;99.90
26107;DHT22;13866;50.748;12.630;2022-08-03T06:04:59;22.20;99.90
26107;DHT22;13866;50.748;12.630;2022-08-03T06:07:25;22.40;99.90
26107;DHT22;13866;50.748;12.630;2022-08-03T06:09:51;22.70;99.90
26107;DHT22;13866;50.748;12.630;2022-08-03T06:12:16;22.80;99.90
26107;DHT22;13866;50.748;12.630;2022-08-03T06:14:41;23.00;99.90
26107;DHT22;13866;50.748;12.630;2022-08-03T06:17:07;23.20;99.90
26107;DHT22;13866;50.748;12.630;2022-08-03T06:19:32;23.40;99.90
26107;DHT22;13866;50.748;12.630;2022-08-03T06:21:58;23.60;99.90
26107;DHT22;13866;50.748;12.630;2022-08-03T06:24:23;23.80;99.90
26107;DHT22;13866;50.748;12.630;2022-08-03T06:26:49;24.00;99.90
26107;DHT22;13866;50.748;12.630;2022-08-03T06:29:14;24.20;99.90
26107;DHT22;13866;50.748;12.630;2022-08-03T06:31:40;24.30;99.90
26107;DHT22;13866;50.748;12.630;2022-08-03T06:34:05;24.50;99.90
26107;DHT22;13866;50.748;12.630;2022-08-03T06:36:31;24.70;99.90
26107;DHT22;13866;50.748;12.630;2022-08-03T06:38:57;24.90;99.90
26107;DHT22;13866;50.748;12.630;2022-08-03T06:41:24;25.10;99.90
26107;DHT22;13866;50.748;12.630;2022-08-03T06:43:49;25.40;99.90
26107;DHT22;13866;50.748;12.630;2022-08-03T06:46:15;25.60;99.90
26107;DHT22;13866;50.748;12.630;2022-08-03T06:48:40;25.50;99.90
26107;DHT22;13866;50.748;12.630;2022-08-03T06:51:06;25.70;99.90
26107;DHT22;13866;50.748;12.630;2022-08-03T06:53:31;25.90;99.90
26107;DHT22;13866;50.748;12.630;2022-08-03T06:55:57;26.20;99.90
26107;DHT22;13866;50.748;12.630;2022-08-03T06:58:22;26.50;99.90
26107;DHT22;13866;50.748;12.630;2022-08-03T07:00:48;26.60;99.90
26107;DHT22;13866;50.748;12.630;2022-08-03T07:03:13;26.90;99.90
26107;DHT22;13866;50.748;12.630;2022-08-03T07:05:40;26.90;99.90
26107;DHT22;13866;50.748;12.630;2022-08-03T07:08:05;26.70;99.90
26107;DHT22;13866;50.748;12.630;2022-08-03T07:10:32;26.90;99.90
26107;DHT22;13866;50.748;12.630;2022-08-03T07:12:57;27.10;99.90
26107;DHT22;13866;50.748;12.630;2022-08-03T07:15:23;27.40;99.90
26107;DHT22;13866;50.748;12.630;2022-08-03T07:17:49;27.50;99.90
26107;DHT22;13866;50.748;12.630;2022-08-03T07:20:14;27.90;99.90
26107;DHT22;13866;50.748;12.630;2022-08-03T07:22:42;28.10;99.90
26107;DHT22;13866;50.748;12.630;2022-08-03T07:25:08;28.10;99.90
26107;DHT22;13866;50.748;12.630;2022-08-03T07:27:34;28.10;99.90
26107;DHT22;13866;50.748;12.630;2022-08-03T07:30:00;28.20;99.90
26107;DHT22;13866;50.748;12.630;2022-08-03T07:32:26;28.40;99.90
26107;DHT22;13866;50.748;12.630;2022-08-03T07:34:53;28.50;99.90
26107;DHT22;13866;50.748;12.630;2022-08-03T07:37:18;28.60;99.90
26107;DHT22;13866;50.748;12.630;2022-08-03T07:39:44;28.70;99.90
26107;DHT22;13866;50.748;12.630;2022-08-03T07:42:09;28.60;99.90
26107;DHT22;13866;50.748;12.630;2022-08-03T07:44:35;28.60;99.90
26107;DHT22;13866;50.748;12.630;2022-08-03T07:47:00;28.40;99.90
26107;DHT22;13866;50.748;12.630;2022-08-03T07:49:26;28.20;99.90
26107;DHT22;13866;50.748;12.630;2022-08-03T07:51:51;28.20;99.90
26107;DHT22;13866;50.748;12.630;2022-08-03T07:54:35;28.00;99.90
26107;DHT22;13866;50.748;12.630;2022-08-03T07:57:00;28.70;99.90
26107;DHT22;13866;50.748;12.630;2022-08-03T07:59:26;28.80;99.90
26107;DHT22;13866;50.748;12.630;2022-08-03T08:01:51;28.80;99.90
26107;DHT22;13866;50.748;12.630;2022-08-03T08:04:18;28.80;99.90
26107;DHT22;13866;50.748;12.630;2022-08-03T08:06:43;28.70;99.90
26107;DHT22;13866;50.748;12.630;2022-08-03T08:09:09;29.20;99.90
26107;DHT22;13866;50.748;12.630;2022-08-03T08:11:36;29.20;99.90
26107;DHT22;13866;50.748;12.630;2022-08-03T08:14:01;29.30;99.90
26107;DHT22;13866;50.748;12.630;2022-08-03T08:16:28;29.20;99.90
26107;DHT22;13866;50.748;12.630;2022-08-03T08:18:53;29.70;99.90
26107;DHT22;13866;50.748;12.630;2022-08-03T08:21:19;29.90;99.90
26107;DHT22;13866;50.748;12.630;2022-08-03T08:23:44;30.00;99.90
26107;DHT22;13866;50.748;12.630;2022-08-03T08:26:10;30.00;99.90
26107;DHT22;13866;50.748;12.630;2022-08-03T08:28:36;29.70;99.90
26107;DHT22;13866;50.748;12.630;2022-08-03T08:31:01;29.90;99.90
26107;DHT22;13866;50.748;12.630;2022-08-03T08:33:27;30.10;99.90
26107;DHT22;13866;50.748;12.630;2022-08-03T08:35:52;30.50;99.90
26107;DHT22;13866;50.748;12.630;2022-08-03T08:38:18;30.90;99.90
26107;DHT22;13866;50.748;12.630;2022-08-03T08:40:43;31.20;99.90
26107;DHT22;13866;50.748;12.630;2022-08-03T08:43:09;31.00;99.90
26107;DHT22;13866;50.748;12.630;2022-08-03T08:45:35;31.30;99.90
26107;DHT22;13866;50.748;12.630;2022-08-03T08:48:02;31.60;99.90
26107;DHT22;13866;50.748;12.630;2022-08-03T08:50:28;31.60;99.90
26107;DHT22;13866;50.748;12.630;2022-08-03T08:52:54;31.70;99.90
26107;DHT22;13866;50.748;12.630;2022-08-03T08:55:22;31.80;99.90
26107;DHT22;13866;50.748;12.630;2022-08-03T08:58:01;31.80;99.90
26107;DHT22;13866;50.748;12.630;2022-08-03T09:00:28;31.90;99.90
26107;DHT22;13866;50.748;12.630;2022-08-03T09:02:55;32.10;99.90
26107;DHT22;13866;50.748;12.630;2022-08-03T09:05:20;32.20;99.90
26107;DHT22;13866;50.748;12.630;2022-08-03T09:07:46;32.10;99.90
26107;DHT22;13866;50.748;12.630;2022-08-03T09:10:15;32.00;99.90
26107;DHT22;13866;50.748;12.630;2022-08-03T09:12:48;32.30;99.90
26107;DHT22;13866;50.748;12.630;2022-08-03T09:15:28;32.40;99.90
26107;DHT22;13866;50.748;12.630;2022-08-03T09:17:57;32.30;99.90
26107;DHT22;13866;50.748;12.630;2022-08-03T09:20:25;31.90;99.90
26107;DHT22;13866;50.748;12.630;2022-08-03T09:23:00;32.10;99.90
26107;DHT22;13866;50.748;12.630;2022-08-03T09:28:07;32.30;99.90
26107;DHT22;13866;50.748;12.630;2022-08-03T09:30:33;32.40;99.90
26107;DHT22;13866;50.748;12.630;2022-08-03T09:33:07;32.60;99.90
26107;DHT22;13866;50.748;12.630;2022-08-03T09:35:42;32.20;99.90
26107;DHT22;13866;50.748;12.630;2022-08-03T09:38:10;32.30;99.90
26107;DHT22;13866;50.748;12.630;2022-08-03T09:40:36;32.50;99.90
26107;DHT22;13866;50.748;12.630;2022-08-03T09:43:01;32.50;99.90
26107;DHT22;13866;50.748;12.630;2022-08-03T09:45:27;32.50;99.10
26107;DHT22;13866;50.748;12.630;2022-08-03T09:47:54;32.50;99.90
26107;DHT22;13866;50.748;12.630;2022-08-03T09:50:21;32.70;99.00
26107;DHT22;13866;50.748;12.630;2022-08-03T09:52:46;32.80;99.40
26107;DHT22;13866;50.748;12.630;2022-08-03T09:55:15;32.80;99.00
26107;DHT22;13866;50.748;12.630;2022-08-03T09:57:41;33.10;98.60
26107;DHT22;13866;50.748;12.630;2022-08-03T10:00:12;33.20;98.00
26107;DHT22;13866;50.748;12.630;2022-08-03T10:02:40;33.20;98.80
26107;DHT22;13866;50.748;12.630;2022-08-03T10:05:07;32.70;98.90
26107;DHT22;13866;50.748;12.630;2022-08-03T10:07:47;32.70;98.80
26107;DHT22;13866;50.748;12.630;2022-08-03T10:10:14;32.90;97.80
26107;DHT22;13866;50.748;12.630;2022-08-03T10:12:41;32.70;99.00
26107;DHT22;13866;50.748;12.630;2022-08-03T10:15:08;32.90;99.40
26107;DHT22;13866;50.748;12.630;2022-08-03T10:17:34;33.10;99.20
26107;DHT22;13866;50.748;12.630;2022-08-03T10:20:00;33.10;98.00
26107;DHT22;13866;50.748;12.630;2022-08-03T10:22:28;33.40;97.10
26107;DHT22;13866;50.748;12.630;2022-08-03T10:25:11;32.50;97.10
26107;DHT22;13866;50.748;12.630;2022-08-03T10:27:41;32.60;97.30
26107;DHT22;13866;50.748;12.630;2022-08-03T10:30:10;32.70;97.20
26107;DHT22;13866;50.748;12.630;2022-08-03T10:32:47;32.90;97.60
26107;DHT22;13866;50.748;12.630;2022-08-03T10:35:15;32.90;99.70
26107;DHT22;13866;50.748;12.630;2022-08-03T10:37:44;33.20;99.20
26107;DHT22;13866;50.748;12.630;2022-08-03T10:40:15;33.00;98.60
26107;DHT22;13866;50.748;12.630;2022-08-03T10:42:45;33.10;96.90
26107;DHT22;13866;50.748;12.630;2022-08-03T10:45:19;33.00;98.10
26107;DHT22;13866;50.748;12.630;2022-08-03T10:47:46;33.50;97.70
26107;DHT22;13866;50.748;12.630;2022-08-03T10:50:12;33.50;97.20
26107;DHT22;13866;50.748;12.630;2022-08-03T10:52:55;33.60;96.30
26107;DHT22;13866;50.748;12.630;2022-08-03T10:55:31;33.70;96.40
26107;DHT22;13866;50.748;12.630;2022-08-03T10:58:48;33.40;93.90
26107;DHT22;13866;50.748;12.630;2022-08-03T11:01:14;33.10;94.30
26107;DHT22;13866;50.748;12.630;2022-08-03T11:06:26;33.70;94.30
26107;DHT22;13866;50.748;12.630;2022-08-03T11:11:39;33.70;93.90
26107;DHT22;13866;50.748;12.630;2022-08-03T11:16:40;33.70;93.80
26107;DHT22;13866;50.748;12.630;2022-08-03T11:19:12;34.10;93.30
26107;DHT22;13866;50.748;12.630;2022-08-03T11:46:05;33.90;91.80
26107;DHT22;13866;50.748;12.630;2022-08-03T11:48:39;34.00;92.90
26107;DHT22;13866;50.748;12.630;2022-08-03T11:51:24;34.20;93.20
26107;DHT22;13866;50.748;12.630;2022-08-03T11:56:19;34.10;93.00
26107;DHT22;13866;50.748;12.630;2022-08-03T11:58:49;34.40;91.70
26107;DHT22;13866;50.748;12.630;2022-08-03T12:01:17;34.60;92.80
26107;DHT22;13866;50.748;12.630;2022-08-03T12:03:42;34.80;93.10
26107;DHT22;13866;50.748;12.630;2022-08-03T12:06:09;34.80;91.80
26107;DHT22;13866;50.748;12.630;2022-08-03T12:08:35;34.10;91.30
26107;DHT22;13866;50.748;12.630;2022-08-03T12:11:03;33.80;92.30
26107;DHT22;13866;50.748;12.630;2022-08-03T12:13:44;34.20;92.80
26107;DHT22;13866;50.748;12.630;2022-08-03T12:16:20;34.60;92.20
26107;DHT22;13866;50.748;12.630;2022-08-03T12:18:59;34.30;92.50
26107;DHT22;13866;50.748;12.630;2022-08-03T12:21:24;34.30;91.40
26107;DHT22;13866;50.748;12.630;2022-08-03T12:23:54;34.50;91.00
26107;DHT22;13866;50.748;12.630;2022-08-03T12:26:20;34.50;91.80
26107;DHT22;13866;50.748;12.630;2022-08-03T12:28:47;34.50;90.60
26107;DHT22;13866;50.748;12.630;2022-08-03T12:31:13;34.30;93.30
26107;DHT22;13866;50.748;12.630;2022-08-03T12:36:23;34.80;90.70
26107;DHT22;13866;50.748;12.630;2022-08-03T12:39:06;34.90;90.90
26107;DHT22;13866;50.748;12.630;2022-08-03T12:41:37;34.80;91.00
26107;DHT22;13866;50.748;12.630;2022-08-03T12:44:05;34.50;91.20
26107;DHT22;13866;50.748;12.630;2022-08-03T12:46:34;34.80;90.80
26107;DHT22;13866;50.748;12.630;2022-08-03T12:51:28;34.50;90.70
26107;DHT22;13866;50.748;12.630;2022-08-03T12:53:55;34.80;89.60
26107;DHT22;13866;50.748;12.630;2022-08-03T12:56:21;35.10;90.10
26107;DHT22;13866;50.748;12.630;2022-08-03T12:58:46;35.30;90.70
26107;DHT22;13866;50.748;12.630;2022-08-03T13:01:12;35.50;90.50
26107;DHT22;13866;50.748;12.630;2022-08-03T13:03:48;35.50;90.10
26107;DHT22;13866;50.748;12.630;2022-08-03T13:06:16;35.30;88.90
26107;DHT22;13866;50.748;12.630;2022-08-03T13:08:42;35.20;90.50
26107;DHT22;13866;50.748;12.630;2022-08-03T13:11:22;35.00;87.60
26107;DHT22;13866;50.748;12.630;2022-08-03T13:13:49;34.70;88.90
26107;DHT22;13866;50.748;12.630;2022-08-03T13:16:15;34.50;87.90
26107;DHT22;13866;50.748;12.630;2022-08-03T13:18:41;34.50;89.50
26107;DHT22;13866;50.748;12.630;2022-08-03T13:21:06;34.60;90.60
26107;DHT22;13866;50.748;12.630;2022-08-03T13:23:32;34.70;88.30
26107;DHT22;13866;50.748;12.630;2022-08-03T13:25:58;34.80;90.00
26107;DHT22;13866;50.748;12.630;2022-08-03T13:28:23;35.00;89.50
26107;DHT22;13866;50.748;12.630;2022-08-03T13:30:49;34.90;88.10
26107;DHT22;13866;50.748;12.630;2022-08-03T13:33:14;34.80;87.10
26107;DHT22;13866;50.748;12.630;2022-08-03T13:35:40;34.90;88.30
26107;DHT22;13866;50.748;12.630;2022-08-03T13:38:05;34.90;88.60
26107;DHT22;13866;50.748;12.630;2022-08-03T13:40:31;34.80;88.70
26107;DHT22;13866;50.748;12.630;2022-08-03T13:42:57;34.80;86.60
26107;DHT22;13866;50.748;12.630;2022-08-03T13:45:23;34.60;88.00
26107;DHT22;13866;50.748;12.630;2022-08-03T13:47:49;34.20;87.70
26107;DHT22;13866;50.748;12.630;2022-08-03T13:50:14;34.50;87.20
26107;DHT22;13866;50.748;12.630;2022-08-03T13:52:40;34.00;86.50
26107;DHT22;13866;50.748;12.630;2022-08-03T13:55:06;33.80;87.00
26107;DHT22;13866;50.748;12.630;2022-08-03T13:57:32;33.10;86.30
26107;DHT22;13866;50.748;12.630;2022-08-03T13:59:57;33.30;90.10
26107;DHT22;13866;50.748;12.630;2022-08-03T14:02:23;33.40;87.40
26107;DHT22;13866;50.748;12.630;2022-08-03T14:04:48;33.50;87.60
26107;DHT22;13866;50.748;12.630;2022-08-03T14:07:14;33.80;88.50
26107;DHT22;13866;50.748;12.630;2022-08-03T14:09:40;33.70;87.00
26107;DHT22;13866;50.748;12.630;2022-08-03T14:12:05;33.90;87.80
26107;DHT22;13866;50.748;12.630;2022-08-03T14:14:31;34.00;90.20
26107;DHT22;13866;50.748;12.630;2022-08-03T14:16:56;34.10;87.50
26107;DHT22;13866;50.748;12.630;2022-08-03T14:19:22;34.20;85.80
26107;DHT22;13866;50.748;12.630;2022-08-03T14:21:48;34.30;87.60
26107;DHT22;13866;50.748;12.630;2022-08-03T14:24:13;34.40;86.90
26107;DHT22;13866;50.748;12.630;2022-08-03T14:26:39;34.30;87.60
26107;DHT22;13866;50.748;12.630;2022-08-03T14:29:04;34.30;88.70
26107;DHT22;13866;50.748;12.630;2022-08-03T14:31:30;34.30;89.40
26107;DHT22;13866;50.748;12.630;2022-08-03T14:33:56;34.30;88.10
26107;DHT22;13866;50.748;12.630;2022-08-03T14:36:21;34.30;85.30
26107;DHT22;13866;50.748;12.630;2022-08-03T14:38:47;34.20;83.40
26107;DHT22;13866;50.748;12.630;2022-08-03T14:41:12;33.80;83.70
26107;DHT22;13866;50.748;12.630;2022-08-03T14:43:38;33.50;84.60
26107;DHT22;13866;50.748;12.630;2022-08-03T14:46:03;33.80;86.00
26107;DHT22;13866;50.748;12.630;2022-08-03T14:48:29;33.50;85.80
26107;DHT22;13866;50.748;12.630;2022-08-03T14:50:54;33.70;85.10
26107;DHT22;13866;50.748;12.630;2022-08-03T14:53:21;33.60;86.00
26107;DHT22;13866;50.748;12.630;2022-08-03T14:55:47;33.50;86.30
26107;DHT22;13866;50.748;12.630;2022-08-03T14:58:14;33.60;87.40
26107;DHT22;13866;50.748;12.630;2022-08-03T15:00:39;33.60;86.20
26107;DHT22;13866;50.748;12.630;2022-08-03T15:03:05;33.60;87.70
26107;DHT22;13866;50.748;12.630;2022-08-03T15:05:31;33.30;86.80
26107;DHT22;13866;50.748;12.630;2022-08-03T15:07:56;33.40;88.40
26107;DHT22;13866;50.748;12.630;2022-08-03T15:10:22;33.40;85.30
26107;DHT22;13866;50.748;12.630;2022-08-03T15:12:47;33.40;84.90
26107;DHT22;13866;50.748;12.630;2022-08-03T15:15:13;33.50;85.30
26107;DHT22;13866;50.748;12.630;2022-08-03T15:17:38;33.40;84.60
26107;DHT22;13866;50.748;12.630;2022-08-03T15:20:04;33.10;84.90
26107;DHT22;13866;50.748;12.630;2022-08-03T15:22:30;33.20;84.30
26107;DHT22;13866;50.748;12.630;2022-08-03T15:24:56;32.80;88.30
26107;DHT22;13866;50.748;12.630;2022-08-03T15:27:22;33.10;89.10
26107;DHT22;13866;50.748;12.630;2022-08-03T15:29:48;33.30;86.60
26107;DHT22;13866;50.748;12.630;2022-08-03T15:32:13;33.10;84.70
26107;DHT22;13866;50.748;12.630;2022-08-03T15:34:39;33.20;90.00
26107;DHT22;13866;50.748;12.630;2022-08-03T15:37:05;33.30;86.40
26107;DHT22;13866;50.748;12.630;2022-08-03T15:39:30;33.40;87.10
26107;DHT22;13866;50.748;12.630;2022-08-03T15:41:56;33.60;87.90
26107;DHT22;13866;50.748;12.630;2022-08-03T15:44:21;33.60;86.60
26107;DHT22;13866;50.748;12.630;2022-08-03T15:46:47;33.60;87.60
26107;DHT22;13866;50.748;12.630;2022-08-03T15:49:13;33.50;86.10
26107;DHT22;13866;50.748;12.630;2022-08-03T15:51:38;33.50;86.90
26107;DHT22;13866;50.748;12.630;2022-08-03T15:54:05;33.50;86.90
26107;DHT22;13866;50.748;12.630;2022-08-03T15:56:31;33.50;85.60
26107;DHT22;13866;50.748;12.630;2022-08-03T15:58:57;33.50;85.20
26107;DHT22;13866;50.748;12.630;2022-08-03T16:01:23;33.40;85.80
26107;DHT22;13866;50.748;12.630;2022-08-03T16:03:49;33.40;86.20
26107;DHT22;13866;50.748;12.630;2022-08-03T16:06:15;33.10;83.20
26107;DHT22;13866;50.748;12.630;2022-08-03T16:08:41;33.10;83.80
26107;DHT22;13866;50.748;12.630;2022-08-03T16:11:06;33.10;82.80